Decoded Metar for BIKF (KEFLAVIK in ICELAND) (IATA:KEF) | Meteo·Mobile Aviation Weather
aviador You're here:

BIKF Decoded Metar

KEFLAVIK in ICELAND
Report Time2018-09-19 20:30:00
UTC Time2018-09-19 21:02:07
Flight Rules vfr VFR
Wind030° at 21 kt
W.Decomp.*RWY 02: 18.9 kt HW 9.2 kt RCW
RWY 11: 9.2 kt HW 18.9 kt LCW
W.Rank030° ranks 2
Current wind is above 030° avg. (12.6)
Visibility9999 m
Phenomena:N/A
Clouds:Few 038 Hf
Scattered 300 Hf
Expected CloudBase > 1,600 ft AGL from Temp-Dew spread
CeilingNone
Temp06°C (ISA -9)
Dew Point02°C (76% RH)
AAT-3.2°C
QNH0998 hPa
Density Alt-256 ft
Elevation177 ft
Report Wrong Elevation
Raw Report
METAR BIKF 192030Z 03021KT 9999 FEW038 SCT300 06/02 Q0998=

Extra information for BIKF:More info

Metar Taf Metar & Taf Last 4 Metars F.Rules Stats Wind Profile Meteogram Temp Stats Airport Information Weather charts Add Link Nearby VenuesMetar ALERT Operation Metar Decoded Social comments